Time;durP1;ratioP1;P1;durP2;ratioP2;P2;SDS_P1;SDS_P2;PMS_P1;PMS_P2;Temp;Humidity;BMP_temperature;BMP_pressure;BME280_temperature;BME280_humidity;BME280_pressure;Samples;Min_cycle;Max_cycle;Signal;HPM_P1;HPM_P2
2022/04/04 00:00:51;;;;;;;8.07;5.35;;;;;;;1.56;56.09;99457.31;5088185;28;20062;-70
2022/04/04 00:03:23;;;;;;;6.13;5.35;;;;;;;1.87;55.87;99510.81;5087906;28;20242;-70
2022/04/04 00:05:56;;;;;;;8.90;5.55;;;;;;;1.85;56.20;99509.09;5086702;28;20110;-71
2022/04/04 00:08:30;;;;;;;8.07;5.50;;;;;;;1.86;56.06;99508.22;5088060;28;20075;-71
2022/04/04 00:11:03;;;;;;;6.57;5.47;;;;;;;1.85;56.57;99514.34;5087744;28;20045;-71
2022/04/04 00:13:33;;;;;;;7.07;5.68;;;;;;;1.83;56.40;99508.28;5087613;28;20036;-71
2022/04/04 00:16:06;;;;;;;8.70;5.75;;;;;;;1.80;56.45;99506.56;5070408;28;20104;-70
2022/04/04 00:18:38;;;;;;;6.18;4.75;;;;;;;1.75;56.76;99511.03;5087919;28;20304;-70
2022/04/04 00:21:08;;;;;;;6.30;5.03;;;;;;;1.79;56.23;99509.22;5087595;28;20040;-71
2022/04/04 00:23:39;;;;;;;6.35;5.68;;;;;;;1.79;56.14;99515.31;5087552;28;20055;-71
2022/04/04 00:26:09;;;;;;;6.50;5.57;;;;;;;1.73;56.98;99507.56;5087774;28;20103;-71
2022/04/04 00:28:39;;;;;;;6.53;5.65;;;;;;;1.41;57.00;99457.59;5087420;28;20037;-71
2022/04/04 00:31:11;;;;;;;7.43;6.13;;;;;;;1.68;57.28;99505.91;5070373;28;20323;-70
2022/04/04 00:33:40;;;;;;;6.13;5.05;;;;;;;1.67;56.93;99507.66;5087501;28;20082;-70
2022/04/04 00:36:10;;;;;;;7.55;5.38;;;;;;;1.63;57.11;99503.38;5087160;28;20051;-70
2022/04/04 00:38:40;;;;;;;6.60;5.55;;;;;;;1.64;57.43;99501.63;5087222;28;20036;-70
2022/04/04 00:41:11;;;;;;;7.85;6.30;;;;;;;1.32;57.99;99461.22;5087165;28;20323;-71
2022/04/04 00:43:41;;;;;;;9.05;5.93;;;;;;;1.56;57.57;99506.97;5087440;28;20040;-71
2022/04/04 00:46:12;;;;;;;7.18;5.63;;;;;;;1.56;58.08;99499.97;5087077;28;20048;-71
2022/04/04 00:48:41;;;;;;;9.98;7.72;;;;;;;1.51;57.84;99498.34;5087343;28;20043;-71
2022/04/04 00:51:11;;;;;;;6.72;5.50;;;;;;;1.49;58.26;99493.13;5086970;28;20209;-71
2022/04/04 00:53:42;;;;;;;7.93;5.30;;;;;;;1.51;57.59;99496.59;5087217;28;20064;-71
2022/04/04 00:56:12;;;;;;;6.45;5.32;;;;;;;1.53;57.46;99496.56;5087063;28;20048;-70
2022/04/04 00:58:42;;;;;;;7.63;6.18;;;;;;;1.53;57.76;99493.94;5087077;28;20037;-71
2022/04/04 01:01:14;;;;;;;6.57;5.43;;;;;;;1.50;57.95;99499.22;5086802;28;20055;-71
2022/04/04 01:03:42;;;;;;;7.68;5.78;;;;;;;1.49;57.87;99494.88;5069061;28;20051;-71
2022/04/04 01:06:13;;;;;;;7.93;6.10;;;;;;;1.47;58.18;99487.06;5069233;28;20067;-70
2022/04/04 01:08:43;;;;;;;6.50;5.50;;;;;;;1.45;57.98;99491.47;5086883;28;20048;-70
2022/04/04 01:11:13;;;;;;;8.95;6.18;;;;;;;1.46;58.32;99493.19;5086562;28;20046;-71
2022/04/04 01:13:46;;;;;;;7.60;6.20;;;;;;;1.43;58.52;99492.38;5086779;28;20043;-70
2022/04/04 01:16:16;;;;;;;7.40;6.50;;;;;;;1.40;59.69;99488.06;5086569;28;20336;-70
2022/04/04 01:18:44;;;;;;;7.50;6.80;;;;;;;1.42;58.54;99490.66;5086530;28;20203;-71
2022/04/04 01:21:19;;;;;;;7.45;5.57;;;;;;;1.37;59.70;99493.34;5086594;28;20099;-71
2022/04/04 01:23:56;;;;;;;8.75;5.78;;;;;;;1.36;59.02;99489.00;5069092;28;20288;-70
2022/04/04 01:26:29;;;;;;;8.90;6.63;;;;;;;1.34;59.93;99489.91;5086187;28;20044;-71
2022/04/04 01:29:02;;;;;;;6.90;6.00;;;;;;;1.35;59.54;99487.28;5086485;28;20086;-70
2022/04/04 01:31:34;;;;;;;6.75;6.15;;;;;;;1.37;59.08;99492.47;5086429;28;20182;-70
2022/04/04 01:34:06;;;;;;;7.97;6.63;;;;;;;1.35;59.32;99487.28;5068942;28;20078;-70
2022/04/04 01:36:38;;;;;;;7.70;6.68;;;;;;;1.33;59.64;99489.03;5086251;28;20044;-70
2022/04/04 01:39:10;;;;;;;7.10;5.55;;;;;;;1.32;60.11;99489.94;5068837;28;20239;-70
2022/04/04 01:41:45;;;;;;;7.60;6.68;;;;;;;1.37;60.12;99485.50;5086003;28;20289;-71
2022/04/04 01:44:17;;;;;;;7.97;6.28;;;;;;;1.36;60.39;99486.38;5068612;28;20040;-70
2022/04/04 01:46:50;;;;;;;9.50;6.70;;;;;;;1.34;59.92;99482.06;5068507;28;20049;-70
2022/04/04 01:49:22;;;;;;;7.25;5.88;;;;;;;1.29;60.79;99489.13;5085911;28;20040;-70
2022/04/04 01:51:54;;;;;;;9.00;6.00;;;;;;;1.28;60.11;99488.25;5068719;28;20045;-71
2022/04/04 01:54:26;;;;;;;9.02;7.25;;;;;;;1.26;59.85;99484.81;5086111;28;20048;-70
2022/04/04 01:57:00;;;;;;;8.65;5.95;;;;;;;1.26;60.94;99492.63;5085938;28;20040;-70
2022/04/04 01:59:32;;;;;;;8.20;6.35;;;;;;;1.26;60.60;99496.09;5085745;28;20086;-71
2022/04/04 02:02:04;;;;;;;8.02;6.13;;;;;;;1.26;60.48;99485.66;5086016;28;20224;-70
2022/04/04 02:04:37;;;;;;;7.40;6.25;;;;;;;1.28;60.26;99492.63;5085460;28;20114;-71
2022/04/04 02:07:09;;;;;;;8.95;6.85;;;;;;;1.37;60.94;99495.94;5068428;28;20090;-70
2022/04/04 02:09:41;;;;;;;8.30;6.72;;;;;;;1.35;60.78;99515.13;5085633;28;20090;-70
2022/04/04 02:12:14;;;;;;;8.88;6.03;;;;;;;1.25;61.04;99491.78;5085628;28;20082;-70
2022/04/04 02:14:47;;;;;;;9.38;6.78;;;;;;;1.24;61.07;99486.56;5085565;28;20040;-70
2022/04/04 02:17:19;;;;;;;8.23;6.28;;;;;;;1.16;61.09;99491.91;5085430;28;20116;-70
2022/04/04 02:19:51;;;;;;;9.07;7.10;;;;;;;1.14;61.05;99491.06;5085530;28;20181;-70
2022/04/04 02:22:23;;;;;;;7.63;6.82;;;;;;;-0.70;60.77;99176.50;5085758;28;20285;-70
2022/04/04 02:24:55;;;;;;;8.25;7.35;;;;;;;1.14;60.83;99485.00;5085449;28;20044;-70
2022/04/04 02:27:29;;;;;;;8.38;7.05;;;;;;;1.10;61.39;99486.78;5085389;28;20063;-70
2022/04/04 02:30:01;;;;;;;7.75;6.43;;;;;;;1.11;61.06;99492.88;5085287;28;20286;-70
2022/04/04 02:32:33;;;;;;;8.35;6.72;;;;;;;1.08;61.64;99487.69;5085715;28;20090;-70
2022/04/04 02:35:06;;;;;;;8.10;6.88;;;;;;;1.05;61.37;99491.22;5085647;28;20086;-70
2022/04/04 02:37:38;;;;;;;6.93;6.22;;;;;;;1.02;61.66;99487.78;5085553;28;20293;-70
2022/04/04 02:40:11;;;;;;;6.85;6.05;;;;;;;0.97;61.35;99492.19;5085301;28;20041;-70
2022/04/04 02:42:46;;;;;;;7.07;5.72;;;;;;;0.97;61.48;99489.59;5085592;28;20041;-70
2022/04/04 02:45:19;;;;;;;9.05;7.63;;;;;;;1.00;61.53;99490.41;5085519;28;20045;-70
2022/04/04 02:47:51;;;;;;;7.22;6.07;;;;;;;0.97;61.77;99492.19;5085313;28;20041;-70
2022/04/04 02:50:23;;;;;;;9.80;6.93;;;;;;;1.00;61.71;99492.16;5085491;28;20094;-70
2022/04/04 02:52:55;;;;;;;7.90;7.03;;;;;;;0.99;61.59;99487.81;5085204;28;20086;-70
2022/04/04 02:58:19;;;;;;;10.43;6.70;;;;;;;1.02;61.47;99480.81;5085099;28;20086;-70
2022/04/04 03:00:51;;;;;;;8.00;6.38;;;;;;;0.98;61.66;99481.75;5085106;28;20098;-70
2022/04/04 03:03:23;;;;;;;8.40;7.13;;;;;;;0.94;62.26;99480.06;5085327;28;20082;-70
2022/04/04 03:05:56;;;;;;;6.57;5.75;;;;;;;0.90;61.93;99481.00;5084870;28;20056;-70
2022/04/04 03:08:28;;;;;;;7.90;6.82;;;;;;;0.86;62.06;99474.94;5085004;28;20040;-70
2022/04/04 03:11:00;;;;;;;8.48;6.72;;;;;;;0.90;61.58;99476.63;5084935;28;20048;-70
2022/04/04 03:13:34;;;;;;;8.07;6.25;;;;;;;0.90;61.90;99468.81;5084956;28;20036;-70
2022/04/04 03:16:06;;;;;;;7.82;6.53;;;;;;;0.89;61.81;99476.66;5084867;28;20041;-70
2022/04/04 03:18:39;;;;;;;9.00;6.43;;;;;;;0.87;62.35;99476.69;5085237;28;20285;-70
2022/04/04 03:21:12;;;;;;;7.55;6.25;;;;;;;0.89;61.82;99479.25;5067421;28;20243;-69
2022/04/04 03:23:44;;;;;;;6.95;6.15;;;;;;;0.87;62.33;99474.06;5085573;28;20075;-69
2022/04/04 03:26:16;;;;;;;7.68;6.13;;;;;;;0.89;61.62;99468.81;5084852;28;20044;-70
2022/04/04 03:28:48;;;;;;;6.95;5.40;;;;;;;0.82;62.44;99470.66;5085391;28;20040;-70
2022/04/04 03:31:16;;;;;;;7.85;6.60;;;;;;;0.83;61.93;99472.38;5084783;28;20153;-70
2022/04/04 03:33:46;;;;;;;8.38;6.45;;;;;;;0.80;62.60;99459.38;5084798;28;20045;-70
2022/04/04 03:36:16;;;;;;;9.38;6.95;;;;;;;0.80;61.87;99459.38;5085648;28;20107;-70
2022/04/04 03:38:47;;;;;;;8.55;6.68;;;;;;;0.80;61.67;99453.31;5085061;28;20063;-70
2022/04/04 03:41:17;;;;;;;9.68;6.38;;;;;;;0.51;62.30;99445.88;5085516;28;20041;-70
2022/04/04 03:43:48;;;;;;;8.07;6.05;;;;;;;0.78;62.19;99452.47;5088244;28;20056;-70
2022/04/04 03:46:17;;;;;;;8.93;5.90;;;;;;;0.76;62.31;99447.28;5088134;28;20304;-70
2022/04/04 03:48:47;;;;;;;8.48;6.47;;;;;;;0.72;62.69;99455.16;5088459;28;20076;-70
2022/04/04 03:51:17;;;;;;;7.47;6.35;;;;;;;0.72;61.73;99450.81;5088101;28;20201;-70
2022/04/04 03:53:47;;;;;;;8.10;6.63;;;;;;;0.70;62.02;99456.94;5088016;28;20036;-70
2022/04/04 03:56:17;;;;;;;6.90;6.05;;;;;;;0.67;61.97;99451.75;5088228;28;20036;-70
2022/04/04 03:58:49;;;;;;;7.32;6.18;;;;;;;0.29;62.30;99400.97;5087983;28;20204;-70
2022/04/04 04:01:18;;;;;;;9.45;5.55;;;;;;;0.01;62.18;99347.47;5070390;28;20051;-70
2022/04/04 04:03:48;;;;;;;13.75;6.25;;;;;;;0.67;61.62;99451.75;5087931;28;20288;-71
2022/04/04 04:06:18;;;;;;;7.68;6.07;;;;;;;0.64;61.86;99446.56;5070377;28;20070;-70
2022/04/04 04:08:49;;;;;;;6.53;5.28;;;;;;;0.63;62.15;99455.28;5088346;28;20280;-70
2022/04/04 04:11:18;;;;;;;8.23;6.53;;;;;;;0.58;62.24;99453.59;5088028;28;20306;-70
2022/04/04 04:13:50;;;;;;;8.05;6.47;;;;;;;0.57;62.42;99451.88;5087964;28;20177;-70
2022/04/04 04:16:18;;;;;;;6.50;5.85;;;;;;;0.25;61.54;99396.69;5087544;28;20102;-70
2022/04/04 04:18:48;;;;;;;8.43;7.28;;;;;;;0.52;61.90;99447.59;5087610;28;20255;-70
2022/04/04 04:21:20;;;;;;;8.15;5.25;;;;;;;0.48;61.88;99441.56;5070342;28;20220;-70
2022/04/04 04:23:49;;;;;;;9.93;6.10;;;;;;;0.51;62.01;99451.09;5087628;28;20103;-70
2022/04/04 04:26:19;;;;;;;8.65;6.65;;;;;;;0.53;61.70;99446.72;5087761;28;20051;-70
2022/04/04 04:28:50;;;;;;;9.85;7.03;;;;;;;0.53;61.94;99447.59;5070214;28;20033;-70
2022/04/04 04:31:19;;;;;;;8.05;6.03;;;;;;;0.19;61.63;99389.81;5087330;28;20040;-70
2022/04/04 04:33:49;;;;;;;8.70;6.80;;;;;;;0.50;62.02;99445.00;5069863;28;20051;-70
2022/04/04 04:36:19;;;;;;;9.00;7.05;;;;;;;0.55;61.71;99448.44;5087357;28;20036;-70
2022/04/04 04:38:49;;;;;;;8.00;6.55;;;;;;;0.55;61.35;99450.16;5087051;28;20037;-70
2022/04/04 04:41:20;;;;;;;7.35;6.05;;;;;;;0.60;61.09;99446.63;5087129;28;20036;-70
2022/04/04 04:43:51;;;;;;;8.57;6.18;;;;;;;0.58;61.27;99447.53;5070180;28;20074;-70
2022/04/04 04:46:20;;;;;;;7.82;5.88;;;;;;;0.60;61.18;99450.97;5086970;28;20040;-70
2022/04/04 04:48:50;;;;;;;8.77;6.00;;;;;;;0.59;60.97;99451.84;5087237;28;20040;-70
2022/04/04 04:51:20;;;;;;;7.35;6.45;;;;;;;0.54;61.34;99453.66;5086918;28;20082;-70
2022/04/04 04:53:50;;;;;;;7.18;5.95;;;;;;;-0.69;61.47;99334.38;5086563;28;20032;-69
2022/04/04 04:56:20;;;;;;;9.90;6.40;;;;;;;0.57;61.02;99451.88;5086765;28;20036;-70
2022/04/04 04:58:52;;;;;;;10.25;6.10;;;;;;;0.57;61.01;99451.88;5069607;28;20044;-70
2022/04/04 05:01:21;;;;;;;7.88;6.07;;;;;;;0.58;61.08;99453.59;5069540;28;20063;-70
2022/04/04 05:03:51;;;;;;;7.68;6.50;;;;;;;0.56;61.15;99455.38;5086741;28;20040;-70
2022/04/04 05:06:21;;;;;;;7.82;6.65;;;;;;;-0.10;60.86;99379.75;5086639;28;20037;-70
2022/04/04 05:08:51;;;;;;;10.10;7.28;;;;;;;0.61;61.05;99457.91;5086530;28;20111;-70
2022/04/04 05:11:21;;;;;;;6.95;5.85;;;;;;;0.58;61.14;99456.22;5086807;28;20040;-70
2022/04/04 05:13:52;;;;;;;8.35;6.60;;;;;;;0.61;61.03;99458.78;5086808;28;20071;-70
2022/04/04 05:16:28;;;;;;;8.57;6.95;;;;;;;0.34;60.59;99455.66;5086721;28;20070;-70
2022/04/04 05:18:57;;;;;;;8.25;6.80;;;;;;;0.36;60.50;99409.56;5086173;28;20044;-70
2022/04/04 05:21:27;;;;;;;7.75;6.00;;;;;;;0.69;60.42;99450.84;5068980;28;20040;-70
2022/04/04 05:23:57;;;;;;;8.18;6.35;;;;;;;0.71;60.60;99459.50;5086164;28;20231;-70
2022/04/04 05:26:27;;;;;;;7.40;6.07;;;;;;;0.69;60.89;99461.28;5086110;28;20207;-70
2022/04/04 05:28:58;;;;;;;7.20;6.07;;;;;;;0.73;60.63;99465.56;5086488;28;20292;-70
2022/04/04 05:31:27;;;;;;;7.95;6.60;;;;;;;0.79;60.42;99465.50;5086333;28;20040;-70
2022/04/04 05:33:58;;;;;;;8.52;6.72;;;;;;;0.83;60.18;99461.09;5086042;28;20062;-70
2022/04/04 05:36:28;;;;;;;8.82;6.97;;;;;;;0.88;59.70;99465.34;5086295;28;20047;-70
2022/04/04 05:38:58;;;;;;;7.82;6.00;;;;;;;0.91;60.08;99470.53;5085821;28;20055;-70
2022/04/04 05:41:28;;;;;;;7.45;5.97;;;;;;;0.94;59.74;99474.84;5085884;28;20052;-70
2022/04/04 05:43:59;;;;;;;14.15;7.18;;;;;;;0.95;59.86;99476.56;5069247;28;20097;-70
2022/04/04 05:46:28;;;;;;;8.00;5.80;;;;;;;0.71;59.42;99428.22;5085909;28;20036;-70
2022/04/04 05:48:58;;;;;;;8.43;6.22;;;;;;;1.04;59.14;99475.56;5068573;28;20028;-70
2022/04/04 05:51:28;;;;;;;7.50;6.15;;;;;;;1.07;59.01;99470.31;5086070;28;20040;-70
2022/04/04 05:53:58;;;;;;;8.20;5.53;;;;;;;1.13;58.85;99478.91;5086016;28;20107;-70
2022/04/04 05:56:28;;;;;;;8.48;6.32;;;;;;;1.21;58.61;99470.97;5068589;28;20099;-70
2022/04/04 05:59:00;;;;;;;6.95;6.13;;;;;;;1.00;58.43;99419.94;5085581;28;20044;-70
2022/04/04 06:01:28;;;;;;;9.50;6.85;;;;;;;1.10;58.19;99428.50;5085566;28;20193;-70
2022/04/04 06:03:58;;;;;;;8.70;7.18;;;;;;;1.66;57.36;99479.81;5084607;28;20304;-71
2022/04/04 06:06:29;;;;;;;7.75;6.65;;;;;;;4.37;51.04;99457.94;5085595;28;20307;-70
2022/04/04 06:08:59;;;;;;;7.40;6.22;;;;;;;6.96;45.25;99440.47;5085497;28;20309;-70
2022/04/04 06:11:29;;;;;;;7.88;5.82;;;;;;;8.49;42.28;99422.53;5085721;28;20307;-71
2022/04/04 06:14:00;;;;;;;8.40;6.30;;;;;;;9.22;40.43;99431.47;5085443;28;20338;-70
2022/04/04 06:16:29;;;;;;;7.38;5.93;;;;;;;9.42;39.95;99428.75;5085734;28;20067;-70
2022/04/04 06:19:00;;;;;;;6.90;6.07;;;;;;;9.57;39.84;99419.19;5085665;28;20051;-70
2022/04/04 06:21:29;;;;;;;6.45;5.72;;;;;;;9.58;39.93;99431.47;5068180;28;20040;-70
2022/04/04 06:23:59;;;;;;;8.48;6.07;;;;;;;9.50;40.87;99431.00;5085902;28;20037;-71
2022/04/04 06:26:30;;;;;;;6.75;5.72;;;;;;;9.34;40.33;99425.59;5085787;28;20071;-70
2022/04/04 06:29:01;;;;;;;7.22;6.22;;;;;;;8.91;41.49;99385.31;5068076;28;20041;-71
2022/04/04 06:31:30;;;;;;;8.30;5.75;;;;;;;8.91;42.89;99421.47;5085385;28;20048;-71
2022/04/04 06:34:00;;;;;;;8.60;5.05;;;;;;;8.81;43.64;99433.41;5085561;28;20047;-71
2022/04/04 06:36:30;;;;;;;6.32;5.15;;;;;;;8.97;43.65;99427.31;5085841;28;20051;-71
2022/04/04 06:39:00;;;;;;;6.18;4.93;;;;;;;9.26;43.42;99431.25;5085459;28;20044;-71
2022/04/04 06:41:31;;;;;;;6.60;4.93;;;;;;;9.37;42.66;99419.28;5085482;28;20099;-71
2022/04/04 06:44:02;;;;;;;8.32;6.13;;;;;;;9.08;42.42;99396.88;5085133;28;20041;-71
2022/04/04 06:46:31;;;;;;;6.03;5.20;;;;;;;8.62;44.84;99384.06;5085462;28;20036;-71
2022/04/04 06:49:00;;;;;;;5.30;4.80;;;;;;;8.25;46.16;99434.19;5085318;28;20048;-71
2022/04/04 06:51:32;;;;;;;6.32;5.07;;;;;;;7.44;46.09;99445.59;5085117;28;20090;-71
2022/04/04 06:54:01;;;;;;;5.65;4.93;;;;;;;7.02;47.72;99440.22;5084987;28;20327;-71
2022/04/04 06:56:31;;;;;;;5.90;5.30;;;;;;;6.70;49.53;99442.28;5067762;28;20305;-71
2022/04/04 06:59:02;;;;;;;7.70;5.13;;;;;;;6.47;48.59;99451.97;5067198;28;20305;-71
2022/04/04 07:01:31;;;;;;;6.43;5.65;;;;;;;6.41;49.17;99442.53;5084936;28;20071;-71
2022/04/04 07:04:02;;;;;;;5.18;4.68;;;;;;;6.22;46.82;99442.34;5085002;28;20075;-71
2022/04/04 07:06:31;;;;;;;6.30;5.43;;;;;;;6.25;48.57;99441.38;5085181;28;20048;-72
2022/04/04 07:09:01;;;;;;;7.13;5.93;;;;;;;6.22;48.76;99433.59;5084947;28;20052;-71
2022/04/04 07:11:33;;;;;;;6.72;5.40;;;;;;;6.16;49.37;99439.94;5085164;28;20028;-71
2022/04/04 07:14:06;;;;;;;7.32;5.30;;;;;;;5.98;48.96;99414.28;5084896;28;20079;-72
2022/04/04 07:16:38;;;;;;;5.85;4.70;;;;;;;6.07;46.44;99437.63;5087482;28;20041;-71
2022/04/04 07:19:15;;;;;;;6.00;5.32;;;;;;;6.15;49.47;99442.63;5088825;28;20280;-71
2022/04/04 07:21:48;;;;;;;5.72;4.43;;;;;;;5.88;49.17;99392.69;5088768;28;20042;-71
2022/04/04 07:24:20;;;;;;;4.60;3.97;;;;;;;5.97;46.71;99400.25;5088432;28;20050;-71
2022/04/04 07:26:53;;;;;;;7.00;4.57;;;;;;;6.26;46.03;99429.94;5088386;28;20040;-71
2022/04/04 07:29:26;;;;;;;6.57;5.28;;;;;;;6.28;46.22;99433.34;5088740;28;20063;-71
2022/04/04 07:31:59;;;;;;;5.97;4.43;;;;;;;6.29;46.34;99427.19;5088475;28;20044;-71
2022/04/04 07:34:31;;;;;;;4.82;3.92;;;;;;;6.29;45.69;99425.41;5088721;28;20181;-71
2022/04/04 07:37:04;;;;;;;5.80;4.55;;;;;;;6.32;45.03;99427.94;5088561;28;20045;-71
2022/04/04 07:39:36;;;;;;;6.95;5.07;;;;;;;5.32;45.09;99281.63;5088451;28;20040;-71
2022/04/04 07:42:09;;;;;;;6.35;4.43;;;;;;;6.37;44.10;99430.38;5088250;28;20044;-71
2022/04/04 07:44:42;;;;;;;6.22;4.32;;;;;;;6.04;43.78;99379.84;5088300;28;20058;-71
2022/04/04 07:47:14;;;;;;;6.15;4.35;;;;;;;6.33;44.48;99420.88;5087931;28;20086;-71
2022/04/04 07:49:47;;;;;;;4.65;3.88;;;;;;;6.35;44.42;99412.03;5087889;28;20302;-71
2022/04/04 07:52:19;;;;;;;4.63;3.65;;;;;;;6.67;42.15;99420.47;5088216;28;20036;-71
2022/04/04 07:54:51;;;;;;;6.45;4.55;;;;;;;6.78;42.56;99407.75;5087747;28;20045;-70
2022/04/04 07:57:23;;;;;;;5.93;3.28;;;;;;;6.90;41.23;99411.72;5087842;28;20041;-71
2022/04/04 07:59:57;;;;;;;5.57;4.20;;;;;;;6.90;40.81;99417.84;5070316;28;20059;-71
2022/04/04 08:02:29;;;;;;;5.50;4.28;;;;;;;6.88;41.03;99403.88;5087745;28;20094;-71
2022/04/04 08:05:02;;;;;;;5.55;3.63;;;;;;;6.86;42.07;99403.09;5087653;28;20056;-71
2022/04/04 08:07:34;;;;;;;4.28;3.53;;;;;;;6.87;40.67;99407.44;5087937;28;20056;-71
2022/04/04 08:10:07;;;;;;;3.90;2.97;;;;;;;6.97;40.34;99400.03;5087636;28;20071;-71
2022/04/04 08:12:39;;;;;;;5.85;3.60;;;;;;;7.08;39.58;99392.53;5087534;28;20040;-70
2022/04/04 08:15:13;;;;;;;6.63;4.07;;;;;;;7.20;39.49;99388.56;5087664;28;20040;-70
2022/04/04 08:17:46;;;;;;;10.73;4.07;;;;;;;7.29;38.84;99388.19;5087496;28;20044;-71
2022/04/04 08:20:18;;;;;;;5.18;3.65;;;;;;;7.59;39.11;99386.06;5087648;28;20052;-71
2022/04/04 08:22:50;;;;;;;5.90;4.15;;;;;;;7.53;37.98;99381.06;5070362;28;20041;-71
2022/04/04 08:25:23;;;;;;;4.88;3.58;;;;;;;7.54;38.67;99378.34;5087486;28;20062;-71
2022/04/04 08:27:55;;;;;;;6.97;4.15;;;;;;;7.28;38.50;99342.50;5086792;28;20037;-71
2022/04/04 08:30:29;;;;;;;4.68;3.78;;;;;;;7.49;37.80;99390.00;5087159;28;20048;-71
2022/04/04 08:33:02;;;;;;;4.25;3.10;;;;;;;7.48;38.16;99385.66;5087631;28;20078;-71
2022/04/04 08:35:35;;;;;;;4.78;3.80;;;;;;;7.32;37.94;99372.22;5087463;28;20044;-71
2022/04/04 08:38:07;;;;;;;4.45;3.60;;;;;;;7.58;37.50;99371.16;5087308;28;20048;-71
2022/04/04 08:40:39;;;;;;;5.63;3.90;;;;;;;6.75;36.76;99249.84;5087249;28;20045;-71
2022/04/04 08:43:12;;;;;;;5.57;4.28;;;;;;;7.50;37.29;99375.91;5069626;28;20041;-71
2022/04/04 08:45:49;;;;;;;5.82;3.97;;;;;;;7.58;36.60;99369.38;5086932;28;20098;-70
2022/04/04 08:48:21;;;;;;;4.90;3.80;;;;;;;7.79;37.22;99367.59;5086844;28;20044;-71
2022/04/04 08:50:53;;;;;;;6.22;3.70;;;;;;;7.85;36.84;99372.63;5086768;28;20041;-71
2022/04/04 08:53:26;;;;;;;5.43;3.70;;;;;;;7.79;36.06;99377.31;5087143;28;20040;-71
2022/04/04 08:55:58;;;;;;;5.70;3.45;;;;;;;7.79;36.71;99364.09;5086640;28;20036;-71
2022/04/04 08:58:31;;;;;;;5.20;3.80;;;;;;;7.88;36.65;99361.91;5086459;28;20086;-71
2022/04/04 09:01:04;;;;;;;4.95;3.83;;;;;;;7.73;36.75;99312.47;5086428;28;20041;-71
2022/04/04 09:03:36;;;;;;;5.00;3.42;;;;;;;8.02;36.93;99350.75;5086524;28;20243;-71
2022/04/04 09:06:09;;;;;;;6.10;4.22;;;;;;;8.06;35.95;99338.28;5086499;28;20232;-71
2022/04/04 09:08:47;;;;;;;4.40;3.63;;;;;;;8.15;34.58;99338.72;5086540;28;20044;-71
2022/04/04 09:11:19;;;;;;;7.32;4.03;;;;;;;8.18;36.62;99343.00;5086697;28;20089;-71
2022/04/04 09:14:04;;;;;;;3.85;3.28;;;;;;;8.40;34.16;99333.16;5069352;28;20284;-71
2022/04/04 09:16:34;;;;;;;5.32;4.13;;;;;;;8.38;36.75;99318.31;5087008;28;20063;-71
2022/04/04 09:19:03;;;;;;;4.95;4.22;;;;;;;8.53;34.63;99321.09;5086346;28;20116;-71
2022/04/04 09:21:34;;;;;;;5.15;3.40;;;;;;;8.41;35.46;99323.44;5086516;28;20036;-71
2022/04/04 09:24:11;;;;;;;4.90;3.80;;;;;;;7.46;35.09;99164.22;5086039;28;20056;-71
2022/04/04 09:26:45;;;;;;;4.85;4.25;;;;;;;8.54;34.89;99306.09;5086198;28;20288;-71
2022/04/04 09:29:19;;;;;;;5.85;3.08;;;;;;;8.60;35.17;99303.16;5086273;28;20082;-71
2022/04/04 09:31:59;;;;;;;4.45;3.75;;;;;;;8.63;33.52;99330.28;5086137;28;20346;-71
2022/04/04 09:34:50;;;;;;;5.47;3.50;;;;;;;8.70;31.94;99301.78;5085871;28;20090;-71
2022/04/04 09:37:24;;;;;;;5.47;3.25;;;;;;;8.75;34.02;99310.34;5085865;28;20045;-71
2022/04/04 09:40:04;;;;;;;4.72;3.50;;;;;;;8.80;33.20;99289.00;5085623;28;20089;-71
2022/04/04 09:42:37;;;;;;;5.85;3.78;;;;;;;8.78;34.76;99296.13;5085605;28;20107;-71
2022/04/04 09:45:12;;;;;;;4.10;3.53;;;;;;;8.55;34.31;99240.00;5085544;28;20041;-70
2022/04/04 09:48:07;;;;;;;4.57;3.65;;;;;;;8.97;31.77;99271.38;5085573;28;20044;-71
2022/04/04 09:50:43;;;;;;;5.88;4.10;;;;;;;8.94;33.77;99252.16;5068243;28;20040;-70
2022/04/04 09:53:17;;;;;;;4.25;3.22;;;;;;;9.07;34.87;99260.34;5085395;28;20040;-71
2022/04/04 09:55:52;;;;;;;5.88;3.90;;;;;;;9.09;34.59;99255.81;5085449;28;20048;-71
2022/04/04 09:58:25;;;;;;;4.55;3.13;;;;;;;9.09;34.41;99250.53;5068237;28;20048;-71
2022/04/04 10:00:59;;;;;;;4.85;3.38;;;;;;;8.71;34.03;99200.47;5085549;28;20040;-71
2022/04/04 10:03:36;;;;;;;4.57;3.60;;;;;;;8.78;33.53;99240.66;5085517;28;20289;-71
2022/04/04 10:06:12;;;;;;;4.97;3.92;;;;;;;8.86;33.52;99231.41;5085356;28;20041;-71
2022/04/04 10:08:51;;;;;;;5.47;4.13;;;;;;;9.04;35.30;99220.84;5068237;28;20044;-71
2022/04/04 10:11:24;;;;;;;5.40;3.15;;;;;;;8.80;33.60;99175.38;5067894;28;20101;-71
2022/04/04 10:13:57;;;;;;;4.15;3.55;;;;;;;9.05;34.46;99218.13;5085607;28;20044;-71
2022/04/04 10:16:30;;;;;;;4.25;3.33;;;;;;;9.15;33.81;99205.28;5085512;28;20044;-71
2022/04/04 10:19:01;;;;;;;5.47;3.78;;;;;;;9.32;34.52;99203.50;5085050;28;20204;-71
2022/04/04 10:21:29;;;;;;;4.32;3.35;;;;;;;9.50;34.10;99196.41;5067970;28;20308;-71
2022/04/04 10:24:02;;;;;;;4.68;3.47;;;;;;;9.78;34.21;99193.13;5085339;28;20296;-71
2022/04/04 10:26:31;;;;;;;8.55;3.83;;;;;;;9.91;33.76;99186.22;5084920;28;20082;-71
2022/04/04 10:29:25;;;;;;;4.65;3.20;;;;;;;10.07;30.44;99182.72;5084973;28;20128;-71
2022/04/04 10:31:59;;;;;;;5.35;3.17;;;;;;;10.28;32.72;99182.38;5069364;28;20057;-71
2022/04/04 10:34:42;;;;;;;4.85;3.83;;;;;;;10.33;30.52;99173.31;5084994;28;20063;-71
2022/04/04 10:37:15;;;;;;;4.22;3.28;;;;;;;10.32;32.24;99166.31;5085321;28;20277;-70
2022/04/04 10:39:49;;;;;;;3.78;3.22;;;;;;;10.20;31.40;99166.06;5084903;28;20086;-70
2022/04/04 10:42:31;;;;;;;5.80;3.17;;;;;;;10.28;31.12;99147.09;5085412;28;20036;-70
2022/04/04 10:45:06;;;;;;;5.30;3.90;;;;;;;10.38;31.68;99158.88;5085279;28;20040;-71
2022/04/04 10:47:39;;;;;;;4.25;3.42;;;;;;;10.38;32.76;99156.22;5085084;28;20040;-71
2022/04/04 10:50:22;;;;;;;4.40;3.67;;;;;;;9.89;30.14;99119.28;5085676;28;20044;-71
2022/04/04 10:52:59;;;;;;;4.90;3.88;;;;;;;9.98;31.46;99132.94;5089175;28;20045;-71
2022/04/04 10:55:49;;;;;;;5.40;3.40;;;;;;;9.87;30.57;99078.81;5089006;28;20086;-71
2022/04/04 10:58:24;;;;;;;4.90;3.75;;;;;;;10.17;31.76;99129.16;5089055;28;20231;-71
2022/04/04 11:01:07;;;;;;;4.90;3.28;;;;;;;10.29;31.56;99117.03;5089364;28;20288;-72
2022/04/04 11:03:41;;;;;;;4.18;3.10;;;;;;;10.17;32.37;99110.63;5071446;28;20040;-72
2022/04/04 11:09:18;;;;;;;3.53;2.80;;;;;;;10.00;32.71;99059.59;5088970;28;20326;-72
2022/04/04 11:11:54;;;;;;;4.28;3.28;;;;;;;10.14;31.41;99113.44;5088966;28;20223;-72
2022/04/04 11:14:54;;;;;;;4.07;3.38;;;;;;;9.92;30.12;99108.53;5088447;28;20048;-72
2022/04/04 11:17:41;;;;;;;3.85;2.95;;;;;;;8.93;31.96;98962.38;5088865;28;20086;-72
2022/04/04 11:20:32;;;;;;;4.30;3.38;;;;;;;9.67;30.62;99096.75;5088620;28;20044;-71
2022/04/04 11:23:09;;;;;;;4.72;3.67;;;;;;;9.68;31.31;99080.78;5088588;28;20044;-72
2022/04/04 11:25:49;;;;;;;4.53;3.47;;;;;;;9.58;30.98;99080.44;5088698;28;20040;-71
2022/04/04 11:28:24;;;;;;;4.78;3.25;;;;;;;9.08;33.11;98985.31;5088686;28;20090;-71
2022/04/04 11:31:04;;;;;;;4.78;3.63;;;;;;;9.55;31.68;99085.06;5088622;28;20048;-72
2022/04/04 11:33:45;;;;;;;4.05;3.38;;;;;;;9.59;31.35;99074.22;5070664;28;20044;-71
2022/04/04 11:36:24;;;;;;;4.68;3.83;;;;;;;9.55;32.15;99071.81;5088273;28;20044;-70
2022/04/04 11:39:03;;;;;;;4.28;3.20;;;;;;;9.33;31.95;99024.50;5070598;28;20044;-71
2022/04/04 11:41:36;;;;;;;4.80;3.88;;;;;;;9.61;33.28;99071.47;5087484;28;20116;-68
2022/04/04 11:44:07;;;;;;;7.75;4.18;;;;;;;9.83;34.10;99053.47;5088137;28;20045;-68
2022/04/04 11:46:36;;;;;;;3.65;3.03;;;;;;;9.99;33.90;99042.84;5088293;28;20185;-68
2022/04/04 11:49:09;;;;;;;3.95;3.10;;;;;;;10.12;33.76;99041.19;5088329;28;20223;-68
2022/04/04 11:51:36;;;;;;;4.88;3.63;;;;;;;10.27;33.64;99040.28;5087605;28;20059;-68
2022/04/04 11:54:10;;;;;;;4.93;3.40;;;;;;;9.28;32.54;98870.53;5088514;28;20351;-68
2022/04/04 11:56:44;;;;;;;4.90;3.53;;;;;;;10.17;32.58;99025.03;5087797;28;20091;-68
2022/04/04 11:59:17;;;;;;;4.50;3.15;;;;;;;10.21;33.31;99030.06;5087890;28;20083;-68
2022/04/04 12:01:49;;;;;;;4.30;3.13;;;;;;;10.06;32.42;98983.28;5086985;28;20045;-68
2022/04/04 12:04:24;;;;;;;3.90;3.17;;;;;;;10.38;32.23;99009.66;5087484;28;20122;-68
2022/04/04 12:06:56;;;;;;;8.10;4.85;;;;;;;10.27;33.02;99007.66;5087696;28;20174;-68
2022/04/04 12:09:31;;;;;;;17.00;9.15;;;;;;;10.49;32.14;99004.56;5087570;28;20044;-70
2022/04/04 12:12:05;;;;;;;5.15;3.35;;;;;;;9.89;32.24;98904.88;5087621;28;20040;-70